Terminal Aerodrome Forecast
Issued by NWS

Home | Current Version | Previous Version | Text Only | Print | Product List | Glossary On
Versions: 1 2 3 4 5 6 7 8 9 10 11 12 13
000
FTUS44 KSJT 272330
TAFBBD
TAF
KBBD 272330Z 2800/2824 16006KT P6SM SCT250
     FM280700 16007KT 6SM BR OVC015
     FM280900 18006KT 3SM BR OVC007
     FM281700 21011KT P6SM BKN250
      AMD NOT SKED=

USA.gov is the U.S. government's official web portal to all federal, state and local government web resources and services.